Time;durP1;ratioP1;P1;durP2;ratioP2;P2;SDS_P1;SDS_P2;PMS_P1;PMS_P2;Temp;Humidity;BMP_temperature;BMP_pressure;BME280_temperature;BME280_humidity;BME280_pressure;Samples;Min_cycle;Max_cycle;Signal;HPM_P1;HPM_P2
2022/12/24 00:00:35;;;;;;;132.93;76.72;;;;;;;6.54;59.73;100948.91;5050361;28;20389;-77
2022/12/24 00:03:01;;;;;;;144.03;83.47;;;;;;;6.43;60.01;100943.78;5046411;28;20396;-77
2022/12/24 00:05:26;;;;;;;140.20;81.37;;;;;;;6.32;60.04;100948.19;5045335;28;20384;-77
2022/12/24 00:07:52;;;;;;;135.77;78.25;;;;;;;6.28;60.17;100954.72;5040643;28;20406;-77
2022/12/24 00:10:17;;;;;;;136.67;80.43;;;;;;;6.19;60.69;100946.78;5045856;28;20390;-77
2022/12/24 00:12:43;;;;;;;138.77;78.83;;;;;;;6.13;60.98;100956.03;5050907;28;20472;-77
2022/12/24 00:15:09;;;;;;;137.67;78.10;;;;;;;6.16;60.59;100961.06;5043814;28;20447;-78
2022/12/24 00:17:34;;;;;;;134.77;77.03;;;;;;;6.28;60.85;100957.34;5045960;28;20393;-78
2022/12/24 00:20:00;;;;;;;125.20;76.03;;;;;;;6.39;60.10;100952.91;5047890;28;20501;-78
2022/12/24 00:22:26;;;;;;;131.82;76.55;;;;;;;6.49;59.91;100951.13;5050702;28;20546;-77
2022/12/24 00:24:51;;;;;;;130.93;75.65;;;;;;;6.45;59.53;100961.09;5050958;28;20847;-77
2022/12/24 00:27:16;;;;;;;127.23;76.00;;;;;;;6.44;59.70;100954.16;5051281;28;20465;-78
2022/12/24 00:29:42;;;;;;;132.60;74.93;;;;;;;6.36;59.69;100959.28;5047505;28;20388;-78
2022/12/24 00:32:09;;;;;;;132.85;76.47;;;;;;;6.26;59.92;100971.59;5049531;28;20389;-78
2022/12/24 00:34:37;;;;;;;142.30;87.20;;;;;;;6.15;60.50;100972.53;5049295;28;20384;-77
2022/12/24 00:37:03;;;;;;;130.70;79.25;;;;;;;6.16;60.77;100973.34;5050146;28;20384;-77
2022/12/24 00:39:29;;;;;;;122.70;72.40;;;;;;;6.23;61.21;100979.75;5049906;28;20452;-78
2022/12/24 00:41:54;;;;;;;131.53;74.93;;;;;;;6.31;61.12;100977.28;5046367;28;20403;-77
2022/12/24 00:44:19;;;;;;;128.77;75.87;;;;;;;6.32;61.28;100977.16;5049263;28;20400;-77
2022/12/24 00:46:45;;;;;;;144.00;86.10;;;;;;;6.24;61.50;100984.88;5049739;28;20384;-77
2022/12/24 00:49:11;;;;;;;140.73;85.70;;;;;;;6.15;61.50;100985.69;5049317;28;20407;-77
2022/12/24 00:51:37;;;;;;;126.05;76.85;;;;;;;6.16;61.52;100997.03;5042110;28;20429;-78
2022/12/24 00:54:03;;;;;;;150.13;91.38;;;;;;;6.22;61.39;101004.41;5049917;28;20385;-77
2022/12/24 00:56:29;;;;;;;100.70;59.50;;;;;;;6.24;61.56;100999.84;5050454;28;20381;-77
2022/12/24 00:58:55;;;;;;;80.80;48.60;;;;;;;6.34;62.27;100998.09;5050115;28;20389;-77
2022/12/24 01:01:21;;;;;;;122.25;69.95;;;;;;;6.29;61.56;100989.75;5038942;28;20394;-77
2022/12/24 01:03:47;;;;;;;109.80;65.85;;;;;;;6.13;61.12;100987.63;5042336;28;20400;-78
2022/12/24 01:06:18;;;;;;;117.28;69.95;;;;;;;6.01;60.66;100994.78;5050309;28;20401;-78
2022/12/24 01:08:44;;;;;;;79.10;48.70;;;;;;;5.86;61.09;100999.56;5050579;28;20407;-78
2022/12/24 01:11:11;;;;;;;68.60;45.67;;;;;;;5.80;60.82;100996.59;5049530;28;20392;-78
2022/12/24 01:13:37;;;;;;;66.30;41.55;;;;;;;5.72;61.14;100990.19;5042151;28;20401;-77
2022/12/24 01:16:03;;;;;;;67.20;43.13;;;;;;;5.71;60.97;100990.38;5035820;28;20703;-77
2022/12/24 01:18:29;;;;;;;66.43;41.10;;;;;;;5.73;61.10;100991.88;5049533;28;20505;-77
2022/12/24 01:21:00;;;;;;;62.67;40.80;;;;;;;5.76;61.44;100996.03;5045778;28;20380;-77
2022/12/24 01:23:27;;;;;;;58.97;37.90;;;;;;;5.79;61.57;100997.59;5048973;28;20936;-77
2022/12/24 01:25:52;;;;;;;53.05;34.55;;;;;;;5.84;61.54;100987.50;5047541;28;20730;-78
2022/12/24 01:28:19;;;;;;;61.10;39.95;;;;;;;5.88;61.96;100994.16;5039140;28;20904;-77
2022/12/24 01:30:45;;;;;;;58.20;38.22;;;;;;;5.91;61.65;100999.16;5051546;28;20392;-77
2022/12/24 01:33:10;;;;;;;62.42;38.92;;;;;;;5.90;61.59;101000.13;5053457;28;20946;-77
2022/12/24 01:35:40;;;;;;;57.47;37.42;;;;;;;5.91;61.71;101004.44;5050815;28;20779;-78
2022/12/24 01:38:05;;;;;;;51.85;33.97;;;;;;;5.93;61.70;100997.22;5045361;28;20401;-78
2022/12/24 01:43:23;;;;;;;39.17;25.70;;;;;;;6.19;62.66;100983.63;5050572;28;20391;-78
2022/12/24 01:46:00;;;;;;;36.50;24.63;;;;;;;6.33;62.79;100991.13;5049581;28;20399;-77
2022/12/24 01:48:44;;;;;;;34.47;22.90;;;;;;;6.54;62.25;100992.84;5047841;28;20797;-77
2022/12/24 01:51:39;;;;;;;35.22;23.17;;;;;;;6.53;62.44;100992.00;5046535;28;20899;-78
2022/12/24 01:54:28;;;;;;;45.08;30.88;;;;;;;6.59;61.93;100988.84;5053334;28;20380;-78
2022/12/24 01:57:03;;;;;;;39.90;25.98;;;;;;;6.68;61.84;100979.25;5053156;28;20389;-78
2022/12/24 01:59:29;;;;;;;36.28;22.70;;;;;;;6.76;61.88;100981.22;5052123;28;20391;-77
2022/12/24 02:01:55;;;;;;;42.10;27.38;;;;;;;6.85;61.41;100978.56;5049766;28;20459;-77
2022/12/24 02:04:29;;;;;;;53.00;34.67;;;;;;;6.82;61.59;100978.00;5044310;28;20964;-79
2022/12/24 02:06:55;;;;;;;49.00;32.80;;;;;;;6.84;61.92;100976.06;5041463;28;20487;-76
2022/12/24 02:09:20;;;;;;;47.57;30.23;;;;;;;6.82;61.67;100983.28;5052433;28;20959;-77
2022/12/24 02:11:46;;;;;;;42.53;27.70;;;;;;;6.82;61.61;100983.28;5050466;28;20856;-78
2022/12/24 02:14:13;;;;;;;39.33;25.23;;;;;;;7.00;61.56;100986.06;5053063;28;20389;-78
2022/12/24 02:17:16;;;;;;;32.75;21.42;;;;;;;7.13;61.44;100978.72;5043905;28;20465;-77
2022/12/24 02:19:53;;;;;;;44.92;28.83;;;;;;;7.17;61.01;100979.25;5041206;28;20375;-77
2022/12/24 02:22:24;;;;;;;38.75;24.27;;;;;;;7.25;61.17;100974.91;5051517;28;20416;-77
2022/12/24 02:25:27;;;;;;;34.80;22.13;;;;;;;7.38;60.71;100971.16;5052456;28;20419;-77
2022/12/24 02:27:56;;;;;;;31.90;21.17;;;;;;;7.54;60.09;100973.19;5039025;28;20969;-77
2022/12/24 02:30:28;;;;;;;34.83;24.05;;;;;;;7.69;59.75;100968.25;5049224;28;20391;-77
2022/12/24 02:33:08;;;;;;;58.33;52.05;;;;;;;7.71;59.13;100963.69;5040805;28;20789;-77
2022/12/24 02:35:42;;;;;;;69.80;61.03;;;;;;;7.47;58.81;100951.81;5048669;28;20419;-77
2022/12/24 02:38:39;;;;;;;61.25;43.58;;;;;;;7.25;58.44;100960.91;5051836;28;20409;-77
2022/12/24 02:41:22;;;;;;;63.38;45.15;;;;;;;7.15;58.16;100965.34;5040549;28;20395;-76
2022/12/24 02:43:50;;;;;;;65.00;45.88;;;;;;;7.11;57.88;100970.09;5047889;28;20394;-77
2022/12/24 02:46:26;;;;;;;62.35;43.40;;;;;;;7.02;58.11;100969.16;5043378;28;20465;-77
2022/12/24 02:48:52;;;;;;;70.88;55.72;;;;;;;6.96;57.72;100972.31;5050804;28;20471;-77
2022/12/24 02:51:23;;;;;;;68.05;49.08;;;;;;;6.77;57.82;100972.31;5044734;28;20385;-77
2022/12/24 02:53:48;;;;;;;66.00;47.80;;;;;;;6.61;58.29;100970.25;5052264;28;20384;-77
2022/12/24 02:56:39;;;;;;;73.55;51.63;;;;;;;6.57;58.20;100972.34;5043587;28;20394;-77
2022/12/24 02:59:17;;;;;;;70.38;49.00;;;;;;;6.52;58.05;100977.19;5051949;28;20504;-77
2022/12/24 03:01:42;;;;;;;65.85;46.63;;;;;;;6.33;58.21;100977.97;5053023;28;20400;-78
2022/12/24 03:04:14;;;;;;;65.33;48.60;;;;;;;6.29;58.34;100982.69;5068314;28;20389;-78
2022/12/24 03:06:49;;;;;;;69.05;56.28;;;;;;;6.31;57.90;100983.38;5045166;28;20463;-77
2022/12/24 03:09:29;;;;;;;54.93;39.90;;;;;;;6.18;58.11;100984.59;5049746;28;20905;-78
2022/12/24 03:12:03;;;;;;;55.72;40.92;;;;;;;6.02;58.42;100985.94;5052414;28;20381;-78
2022/12/24 03:14:30;;;;;;;56.78;41.53;;;;;;;5.90;58.71;100986.97;5044684;28;20501;-78
2022/12/24 03:16:57;;;;;;;50.20;37.15;;;;;;;5.87;58.79;100984.59;5040336;28;20404;-77
2022/12/24 03:19:24;;;;;;;47.13;33.33;;;;;;;5.80;58.45;100993.97;5046309;28;20393;-77
2022/12/24 03:21:50;;;;;;;57.10;43.13;;;;;;;5.71;58.90;100996.44;5046412;28;20472;-77
2022/12/24 03:24:16;;;;;;;50.70;37.28;;;;;;;5.69;58.64;100989.63;5048065;28;20465;-76
2022/12/24 03:26:45;;;;;;;50.10;34.10;;;;;;;5.56;59.04;100995.09;5050791;28;20404;-77
2022/12/24 03:29:11;;;;;;;57.38;41.55;;;;;;;5.50;58.92;100979.88;5044289;28;20776;-76
2022/12/24 03:31:48;;;;;;;60.92;49.58;;;;;;;5.58;58.86;100990.53;5050858;28;20396;-77
2022/12/24 03:34:15;;;;;;;49.53;34.70;;;;;;;5.50;58.64;100983.31;5036486;28;20390;-76
2022/12/24 03:36:42;;;;;;;56.75;42.10;;;;;;;5.43;59.03;100986.59;5048721;28;20389;-77
2022/12/24 03:39:08;;;;;;;54.13;36.45;;;;;;;5.48;59.04;100984.44;5050672;28;20472;-78
2022/12/24 03:41:35;;;;;;;65.07;47.40;;;;;;;5.48;58.76;100982.63;5045486;28;20426;-77
2022/12/24 03:44:00;;;;;;;54.20;36.50;;;;;;;5.44;58.86;100980.38;5047115;28;20393;-77
2022/12/24 03:46:26;;;;;;;53.40;34.70;;;;;;;5.44;58.76;100991.75;5049864;28;20802;-78
2022/12/24 03:48:52;;;;;;;53.43;34.83;;;;;;;5.40;59.32;100987.69;5050501;28;20904;-77
2022/12/24 03:51:20;;;;;;;55.73;35.00;;;;;;;5.35;59.18;100988.09;5048804;28;20449;-77
2022/12/24 03:53:46;;;;;;;56.35;37.92;;;;;;;5.33;59.25;100992.66;5039586;28;20401;-77
2022/12/24 03:56:12;;;;;;;54.10;36.65;;;;;;;5.32;59.38;100984.88;5036468;28;20388;-77
2022/12/24 03:58:37;;;;;;;59.58;40.75;;;;;;;5.40;58.84;100986.84;5048208;28;20804;-78
2022/12/24 04:01:03;;;;;;;55.93;39.33;;;;;;;5.47;58.58;100980.94;5049076;28;20508;-78
2022/12/24 04:03:28;;;;;;;70.88;54.78;;;;;;;5.53;58.36;100980.44;5043272;28;20429;-78
2022/12/24 04:06:09;;;;;;;65.53;45.42;;;;;;;5.50;58.27;100974.59;5045585;28;20388;-78
2022/12/24 04:08:35;;;;;;;60.00;42.60;;;;;;;5.49;57.98;100975.56;5048325;28;20426;-78
2022/12/24 04:11:02;;;;;;;63.92;42.88;;;;;;;5.50;57.89;100979.88;5050644;28;20479;-78
2022/12/24 04:13:28;;;;;;;64.78;41.88;;;;;;;5.48;58.28;100985.25;5044033;28;20440;-78
2022/12/24 04:16:05;;;;;;;68.37;44.87;;;;;;;5.43;58.21;100991.88;5045359;28;20396;-78
2022/12/24 04:18:30;;;;;;;64.72;41.40;;;;;;;5.30;58.15;100998.16;5048075;28;20397;-77
2022/12/24 04:20:56;;;;;;;71.80;47.37;;;;;;;5.05;59.03;101007.25;5050008;28;20401;-77
2022/12/24 04:23:22;;;;;;;70.67;44.37;;;;;;;4.83;60.23;101012.59;5047339;28;20434;-78
2022/12/24 04:25:48;;;;;;;68.50;43.25;;;;;;;4.69;59.98;101011.91;5038528;28;20684;-77
2022/12/24 04:28:14;;;;;;;64.30;41.90;;;;;;;4.72;60.17;101014.31;5036913;28;20414;-77
2022/12/24 04:30:40;;;;;;;64.07;42.28;;;;;;;4.75;59.90;101003.56;5046752;28;20885;-77
2022/12/24 04:33:06;;;;;;;67.18;43.95;;;;;;;4.43;60.62;101007.94;5039318;28;20499;-78
2022/12/24 04:35:31;;;;;;;68.87;43.83;;;;;;;4.44;60.44;101013.06;5046954;28;21014;-77
2022/12/24 04:37:57;;;;;;;64.57;42.73;;;;;;;4.53;60.19;101014.94;5044518;28;20742;-78
2022/12/24 04:40:23;;;;;;;73.47;46.90;;;;;;;4.53;59.73;101012.31;5050276;28;20384;-77
2022/12/24 04:42:52;;;;;;;68.87;45.70;;;;;;;4.50;60.19;101011.72;5045008;28;20494;-78
2022/12/24 04:45:17;;;;;;;72.93;50.50;;;;;;;4.50;60.06;101007.34;5041601;28;20857;-77
2022/12/24 04:47:43;;;;;;;68.63;45.70;;;;;;;4.45;59.86;101012.13;5049225;28;20486;-77
2022/12/24 04:50:10;;;;;;;70.53;45.97;;;;;;;4.50;60.10;101011.72;5040179;28;20398;-77
2022/12/24 04:52:35;;;;;;;63.72;44.30;;;;;;;4.54;59.82;101013.19;5049053;28;20873;-77
2022/12/24 04:55:02;;;;;;;75.32;49.38;;;;;;;4.56;60.19;101006.84;5049698;28;20390;-77
2022/12/24 04:57:31;;;;;;;73.20;47.75;;;;;;;4.48;60.25;100997.91;5048889;28;20395;-77
2022/12/24 04:59:56;;;;;;;67.82;47.00;;;;;;;4.39;60.24;100997.69;5043474;28;20377;-77
2022/12/24 05:02:22;;;;;;;76.13;48.80;;;;;;;4.31;59.80;101005.34;5038518;28;20886;-77
2022/12/24 05:04:47;;;;;;;70.68;46.70;;;;;;;4.35;60.71;101005.94;5051191;28;21140;-79
2022/12/24 05:07:12;;;;;;;70.97;45.90;;;;;;;4.47;60.50;101004.94;5052308;28;20398;-77
2022/12/24 05:09:38;;;;;;;69.83;47.13;;;;;;;4.55;59.88;100999.06;5053610;28;20412;-77
2022/12/24 05:12:04;;;;;;;75.68;46.63;;;;;;;4.56;59.92;100995.50;5053914;28;20741;-77
2022/12/24 05:14:29;;;;;;;71.50;46.95;;;;;;;4.57;60.26;100994.53;5053723;28;20395;-77
2022/12/24 05:16:54;;;;;;;71.82;47.88;;;;;;;4.65;59.76;100997.38;5053356;28;20393;-78
2022/12/24 05:19:20;;;;;;;69.20;45.57;;;;;;;4.69;60.11;100993.53;5053437;28;20377;-78
2022/12/24 05:26:20;;;;;;;69.67;44.63;;;;;;;4.76;59.49;101004.38;5048454;28;20384;-76
2022/12/24 05:27:15;;;;;;;68.32;46.80;;;;;;;4.68;59.82;100981.38;5041056;28;20799;-77
2022/12/24 05:29:40;;;;;;;72.22;48.60;;;;;;;4.80;59.84;100979.53;5045544;28;20967;-77
2022/12/24 05:32:06;;;;;;;72.22;47.42;;;;;;;4.89;59.44;100986.66;5048159;28;20440;-77
2022/12/24 05:34:31;;;;;;;70.10;48.27;;;;;;;4.88;59.45;100987.63;5051988;28;20393;-77
2022/12/24 05:36:56;;;;;;;69.23;45.13;;;;;;;4.95;59.33;100986.16;5050359;28;20390;-78
2022/12/24 05:39:22;;;;;;;71.85;48.42;;;;;;;4.98;59.19;100987.69;5049038;28;20463;-77
2022/12/24 05:41:47;;;;;;;69.47;47.57;;;;;;;5.04;59.31;100978.47;5050841;28;20399;-77
2022/12/24 05:44:13;;;;;;;65.93;44.03;;;;;;;5.06;59.06;100979.16;5053111;28;20385;-77
2022/12/24 05:46:39;;;;;;;70.40;47.17;;;;;;;5.12;58.62;100986.56;5043710;28;20765;-77
2022/12/24 05:49:04;;;;;;;71.43;45.07;;;;;;;5.11;58.98;100980.47;5047994;28;20489;-78
2022/12/24 05:51:30;;;;;;;104.57;62.10;;;;;;;5.05;59.38;100988.84;5051361;28;20400;-78
2022/12/24 05:53:55;;;;;;;77.43;51.37;;;;;;;5.05;59.05;100988.03;5052407;28;20384;-77
2022/12/24 05:56:23;;;;;;;67.47;45.72;;;;;;;5.10;59.69;100999.81;5048881;28;20807;-77
2022/12/24 05:58:49;;;;;;;74.97;51.53;;;;;;;5.22;59.54;101000.59;5052812;28;20381;-78
2022/12/24 06:01:15;;;;;;;74.43;50.20;;;;;;;5.26;59.04;101001.19;5041112;28;20382;-78
2022/12/24 06:03:41;;;;;;;78.60;51.83;;;;;;;5.31;59.43;101005.09;5044410;28;20393;-78
2022/12/24 06:06:12;;;;;;;101.50;66.33;;;;;;;5.33;59.16;100997.03;5038767;28;20912;-77
2022/12/24 06:08:39;;;;;;;85.15;55.25;;;;;;;5.35;58.98;100998.59;5051515;28;20412;-78
2022/12/24 06:11:08;;;;;;;74.72;48.25;;;;;;;5.31;59.36;101004.22;5052529;28;20384;-78
2022/12/24 06:13:35;;;;;;;93.93;60.10;;;;;;;5.27;59.97;101021.22;5037330;28;20689;-78
2022/12/24 06:16:03;;;;;;;128.50;81.15;;;;;;;5.23;59.73;101036.41;5045361;28;20482;-78
2022/12/24 06:18:30;;;;;;;89.05;57.10;;;;;;;5.15;60.62;101033.63;5050673;28;20454;-77
2022/12/24 06:20:57;;;;;;;85.28;55.63;;;;;;;5.14;60.83;101038.00;5046929;28;20875;-78
2022/12/24 06:23:23;;;;;;;91.80;57.42;;;;;;;5.15;60.75;101049.38;5052132;28;20415;-78
2022/12/24 06:25:50;;;;;;;95.95;65.82;;;;;;;5.13;60.57;101044.25;5052853;28;20384;-78
2022/12/24 06:28:16;;;;;;;93.75;62.70;;;;;;;5.15;60.74;101042.31;5048505;28;20837;-77
2022/12/24 06:30:46;;;;;;;86.50;58.00;;;;;;;5.22;60.84;101039.16;5051215;28;20723;-78
2022/12/24 06:33:12;;;;;;;88.20;56.60;;;;;;;5.30;60.73;101055.97;5049381;28;20389;-78
2022/12/24 06:35:37;;;;;;;84.60;56.88;;;;;;;5.39;60.64;101059.66;5045329;28;20412;-77
2022/12/24 06:38:03;;;;;;;85.77;58.53;;;;;;;5.54;60.49;101045.19;5045251;28;20438;-78
2022/12/24 06:40:28;;;;;;;80.20;53.63;;;;;;;5.65;60.62;101054.81;5038688;28;20775;-80
2022/12/24 06:42:54;;;;;;;79.88;54.13;;;;;;;5.71;60.81;101051.69;5052418;28;20397;-77
2022/12/24 06:45:19;;;;;;;89.07;58.90;;;;;;;5.72;60.95;101052.50;5047024;28;20412;-76
2022/12/24 06:47:45;;;;;;;96.93;62.63;;;;;;;5.82;60.45;101056.03;5046531;28;20492;-79
2022/12/24 06:50:10;;;;;;;96.63;62.10;;;;;;;5.82;60.72;101053.41;5039389;28;20481;-79
2022/12/24 06:52:36;;;;;;;86.53;55.40;;;;;;;5.84;60.88;101062.00;5051894;28;20392;-78
2022/12/24 06:55:02;;;;;;;94.13;65.05;;;;;;;5.92;61.31;101059.56;5052379;28;20400;-78
2022/12/24 06:57:27;;;;;;;100.10;64.05;;;;;;;5.98;60.79;101067.91;5053940;28;20392;-78
2022/12/24 06:59:53;;;;;;;87.28;56.90;;;;;;;6.02;60.38;101064.06;5053365;28;20416;-79
2022/12/24 07:02:18;;;;;;;96.32;58.42;;;;;;;6.02;60.82;101064.06;5053053;28;20392;-78
2022/12/24 07:04:44;;;;;;;130.00;65.33;;;;;;;5.95;60.74;101068.97;5039167;28;20430;-78
2022/12/24 07:07:09;;;;;;;91.77;53.67;;;;;;;5.91;61.09;101071.03;5056647;28;20379;-79
2022/12/24 07:09:35;;;;;;;92.22;55.33;;;;;;;5.97;61.23;101082.84;5062661;28;20434;-78
2022/12/24 07:12:00;;;;;;;86.17;55.10;;;;;;;6.03;60.86;101073.59;5046638;28;20491;-78
2022/12/24 07:14:26;;;;;;;97.03;61.10;;;;;;;6.13;60.34;101085.00;5052881;28;20380;-78
2022/12/24 07:16:52;;;;;;;117.30;75.00;;;;;;;6.06;60.49;101083.88;5052863;28;20396;-78
2022/12/24 07:19:17;;;;;;;107.30;66.70;;;;;;;6.19;60.60;101084.47;5041711;28;20430;-79
2022/12/24 07:21:43;;;;;;;107.13;66.23;;;;;;;6.25;60.42;101080.50;5050449;28;20380;-78
2022/12/24 07:24:08;;;;;;;99.45;63.38;;;;;;;6.37;60.46;101087.31;5052956;28;20415;-78
2022/12/24 07:26:34;;;;;;;97.97;63.53;;;;;;;6.48;59.82;101087.22;5037580;28;20390;-78
2022/12/24 07:28:59;;;;;;;106.00;65.77;;;;;;;6.56;59.77;101080.47;5031587;28;20395;-78
2022/12/24 07:31:24;;;;;;;107.90;65.13;;;;;;;6.57;60.03;101082.97;5035087;28;20778;-78
2022/12/24 07:33:50;;;;;;;97.75;65.50;;;;;;;6.67;59.68;101088.25;5037975;28;20443;-78
2022/12/24 07:36:20;;;;;;;99.93;62.37;;;;;;;6.70;59.88;101094.09;5051544;28;20385;-78
2022/12/24 07:38:46;;;;;;;99.30;63.10;;;;;;;6.78;59.70;101084.66;5040257;28;20968;-78
2022/12/24 07:41:13;;;;;;;99.38;61.00;;;;;;;6.77;59.53;101089.09;5038683;28;20484;-78
2022/12/24 07:43:38;;;;;;;98.18;61.35;;;;;;;6.79;59.94;101081.91;5041838;28;20750;-78
2022/12/24 07:46:04;;;;;;;90.78;58.58;;;;;;;6.85;59.50;101085.78;5032422;28;20843;-79
2022/12/24 07:48:31;;;;;;;96.53;61.80;;;;;;;6.91;59.98;101079.13;5038782;28;20410;-76
2022/12/24 07:50:58;;;;;;;86.75;57.40;;;;;;;6.96;59.80;101082.19;5045846;28;20386;-79
2022/12/24 07:53:25;;;;;;;79.32;53.58;;;;;;;6.97;59.74;101086.47;5047365;28;20471;-79
2022/12/24 07:55:51;;;;;;;69.88;48.60;;;;;;;6.99;59.86;101087.19;5049492;28;20377;-79
2022/12/24 07:58:17;;;;;;;72.20;49.78;;;;;;;7.09;59.72;101077.47;5047546;28;20413;-79
2022/12/24 08:00:43;;;;;;;79.23;52.83;;;;;;;7.16;59.44;101083.84;5047290;28;20965;-77
2022/12/24 08:03:16;;;;;;;78.72;52.42;;;;;;;7.17;59.44;101097.91;5049085;28;20400;-79
2022/12/24 08:05:42;;;;;;;83.38;56.25;;;;;;;7.17;59.69;101082.91;5047790;28;20391;-78
2022/12/24 08:08:07;;;;;;;61.37;44.37;;;;;;;7.19;59.96;101088.88;5049353;28;20396;-78
2022/12/24 08:10:33;;;;;;;58.13;43.13;;;;;;;7.15;60.29;101089.25;5052028;28;20484;-78
2022/12/24 08:12:58;;;;;;;59.28;43.22;;;;;;;7.23;60.55;101090.25;5037564;28;20373;-78
2022/12/24 08:15:24;;;;;;;83.68;53.22;;;;;;;7.39;60.40;101092.31;5045510;28;20395;-79
2022/12/24 08:17:49;;;;;;;114.83;71.03;;;;;;;7.47;60.21;101081.91;5048186;28;20469;-79
2022/12/24 08:20:16;;;;;;;127.97;74.20;;;;;;;7.55;60.44;101096.22;5049005;28;20400;-78
2022/12/24 08:22:42;;;;;;;119.88;70.68;;;;;;;7.66;59.87;101082.84;5049850;28;20742;-80
2022/12/24 08:25:09;;;;;;;111.93;66.50;;;;;;;7.70;59.63;101086.03;5049164;28;20816;-79
2022/12/24 08:27:35;;;;;;;111.97;65.10;;;;;;;7.73;59.99;101083.94;5049513;28;20389;-78
2022/12/24 08:30:00;;;;;;;137.85;70.90;;;;;;;7.63;59.55;101086.63;5051188;28;20387;-78
2022/12/24 08:32:26;;;;;;;133.70;72.80;;;;;;;7.60;59.78;101081.63;5049204;28;20395;-79
2022/12/24 08:34:51;;;;;;;133.60;74.15;;;;;;;7.65;59.68;101075.91;5050360;28;20389;-77
2022/12/24 08:37:17;;;;;;;127.47;70.80;;;;;;;7.79;59.60;101072.81;5048658;28;20460;-79
2022/12/24 08:39:42;;;;;;;118.60;71.07;;;;;;;7.84;59.63;101075.03;5048909;28;20380;-77
2022/12/24 08:42:07;;;;;;;110.93;67.30;;;;;;;7.84;59.50;101078.50;5048606;28;20385;-77
2022/12/24 08:44:33;;;;;;;98.13;60.47;;;;;;;7.81;59.50;101083.22;5050235;28;20928;-79
2022/12/24 08:46:58;;;;;;;88.50;56.30;;;;;;;7.77;59.47;101085.31;5049556;28;20421;-79
2022/12/24 08:49:26;;;;;;;78.73;53.63;;;;;;;7.82;59.59;101077.81;5048941;28;20424;-79
2022/12/24 08:51:51;;;;;;;78.27;53.33;;;;;;;7.84;59.37;101060.03;5049406;28;20891;-79
2022/12/24 08:54:17;;;;;;;78.70;55.53;;;;;;;7.92;59.43;101061.13;5047393;28;20719;-77
2022/12/24 08:56:43;;;;;;;79.05;53.88;;;;;;;7.91;59.33;101051.56;5044298;28;20382;-78
2022/12/24 08:59:10;;;;;;;79.90;54.08;;;;;;;7.87;59.44;101045.72;5043931;28;20744;-77
2022/12/24 09:01:36;;;;;;;78.72;54.00;;;;;;;7.87;59.62;101051.00;5042315;28;20382;-77
2022/12/24 09:04:01;;;;;;;70.33;50.40;;;;;;;7.89;59.54;101062.25;5048585;28;20472;-76
2022/12/24 09:06:27;;;;;;;65.00;46.40;;;;;;;7.91;59.39;101065.56;5043167;28;20409;-77
2022/12/24 09:08:52;;;;;;;74.97;51.45;;;;;;;8.04;59.58;101073.16;5044531;28;20409;-76
2022/12/24 09:11:19;;;;;;;76.50;52.20;;;;;;;8.05;59.16;101085.41;5049570;28;20428;-76
2022/12/24 09:13:45;;;;;;;87.28;58.38;;;;;;;8.03;59.28;101079.41;5046552;28;20388;-78
2022/12/24 09:16:11;;;;;;;85.55;60.33;;;;;;;8.01;59.40;101073.44;5040900;28;20403;-76
2022/12/24 09:18:38;;;;;;;84.32;59.15;;;;;;;8.08;59.65;101074.53;5047647;28;20458;-77
2022/12/24 09:21:14;;;;;;;81.70;57.55;;;;;;;8.23;59.68;101081.03;5037354;28;20828;-78
2022/12/24 09:23:42;;;;;;;79.22;55.42;;;;;;;8.29;59.99;101076.97;5043749;28;20402;-76
2022/12/24 09:26:17;;;;;;;76.30;54.65;;;;;;;8.32;59.56;101092.53;5045492;28;20391;-77
2022/12/24 09:28:42;;;;;;;90.47;63.42;;;;;;;8.31;59.33;101082.91;5049656;28;20474;-76
2022/12/24 09:31:09;;;;;;;83.97;58.20;;;;;;;8.42;59.88;101071.38;5049191;28;20396;-77
2022/12/24 09:33:37;;;;;;;88.05;58.42;;;;;;;8.45;59.86;101072.91;5049963;28;20385;-78
2022/12/24 09:36:04;;;;;;;87.05;59.92;;;;;;;8.50;59.52;101074.13;5049057;28;20387;-77
2022/12/24 09:38:30;;;;;;;90.45;60.22;;;;;;;8.49;59.19;101082.19;5045624;28;20420;-76
2022/12/24 09:40:57;;;;;;;89.33;61.50;;;;;;;8.50;59.54;101084.69;5045789;28;20451;-77
2022/12/24 09:43:26;;;;;;;91.78;60.92;;;;;;;8.53;58.99;101087.00;5049538;28;20758;-78
2022/12/24 09:45:54;;;;;;;89.68;62.33;;;;;;;8.57;59.19;101080.47;5037813;28;20765;-79
2022/12/24 09:48:25;;;;;;;96.47;64.10;;;;;;;8.65;59.50;101077.09;5043679;28;20827;-77
2022/12/24 09:50:54;;;;;;;97.65;65.07;;;;;;;8.75;59.70;101075.22;5046536;28;20396;-78
2022/12/24 09:53:44;;;;;;;98.32;64.85;;;;;;;8.82;59.58;101078.06;5051976;28;20451;-77
2022/12/24 09:56:32;;;;;;;96.38;63.00;;;;;;;8.84;59.07;101081.44;5051413;28;20476;-77
2022/12/24 09:59:00;;;;;;;99.25;64.35;;;;;;;8.90;59.52;101075.53;5052445;28;20718;-79
2022/12/24 10:01:29;;;;;;;96.28;64.88;;;;;;;8.97;59.15;101073.13;5052589;28;20381;-78
2022/12/24 10:04:06;;;;;;;92.05;64.60;;;;;;;8.94;59.84;101070.78;5052803;28;20695;-78
2022/12/24 10:06:50;;;;;;;91.60;61.60;;;;;;;9.01;59.87;101060.44;5051680;28;20388;-76
2022/12/24 10:09:16;;;;;;;98.63;64.82;;;;;;;9.02;59.24;101062.94;5066850;28;20404;-77
2022/12/24 10:12:18;;;;;;;97.77;64.13;;;;;;;9.12;59.46;101057.53;5050179;28;20392;-78
2022/12/24 10:15:26;;;;;;;83.90;59.88;;;;;;;9.19;60.03;101061.25;5042140;28;20870;-77
2022/12/24 10:17:54;;;;;;;79.53;55.70;;;;;;;9.19;59.84;101059.44;5046853;28;20394;-77
2022/12/24 10:20:36;;;;;;;94.78;61.92;;;;;;;9.22;59.37;101042.44;5049012;28;20392;-78
2022/12/24 10:23:10;;;;;;;82.22;61.30;;;;;;;9.31;59.78;101044.16;5039857;28;20485;-77
2022/12/24 10:25:52;;;;;;;81.40;55.75;;;;;;;9.33;59.67;101054.59;5042880;28;20392;-77
2022/12/24 10:28:23;;;;;;;84.65;62.38;;;;;;;9.38;59.56;101047.00;5042897;28;20480;-77
2022/12/24 10:30:54;;;;;;;71.35;51.95;;;;;;;9.45;59.52;101045.41;5052039;28;20514;-77
2022/12/24 10:33:43;;;;;;;76.40;54.85;;;;;;;9.50;59.65;101050.25;5051540;28;20380;-76
2022/12/24 10:36:17;;;;;;;78.97;55.38;;;;;;;9.48;59.75;101053.03;5045382;28;20781;-77
2022/12/24 10:38:44;;;;;;;71.75;51.78;;;;;;;9.44;59.47;101048.22;5050196;28;20385;-78
2022/12/24 10:41:12;;;;;;;71.70;51.55;;;;;;;9.49;59.67;101052.06;5051366;28;20463;-77
2022/12/24 10:43:39;;;;;;;89.53;62.17;;;;;;;9.47;59.55;101058.47;5051572;28;20385;-77
2022/12/24 10:46:27;;;;;;;73.55;55.00;;;;;;;9.44;59.56;101064.09;5050707;28;20420;-76
2022/12/24 10:49:04;;;;;;;82.68;60.70;;;;;;;9.55;60.12;101054.09;5050091;28;20423;-76
2022/12/24 10:51:29;;;;;;;90.85;65.20;;;;;;;9.65;59.73;101045.19;5048828;28;20412;-76
2022/12/24 10:54:20;;;;;;;91.53;66.00;;;;;;;9.72;58.99;101051.53;5051349;28;20388;-77
2022/12/24 10:56:57;;;;;;;94.18;64.15;;;;;;;9.85;59.62;101048.47;5051454;28;20384;-77
2022/12/24 10:59:25;;;;;;;88.00;62.57;;;;;;;9.92;59.50;101044.19;5051362;28;20412;-77
2022/12/24 11:01:51;;;;;;;86.28;59.95;;;;;;;9.98;59.35;101048.06;5067212;28;20392;-78
2022/12/24 11:04:22;;;;;;;86.20;60.42;;;;;;;10.02;59.85;101042.28;5051886;28;20395;-78
2022/12/24 11:07:16;;;;;;;84.63;59.33;;;;;;;10.05;59.72;101043.78;5051051;28;20389;-78
2022/12/24 11:09:54;;;;;;;86.07;57.58;;;;;;;10.07;59.37;101028.56;5051897;28;20424;-78
2022/12/24 11:12:22;;;;;;;87.30;59.00;;;;;;;10.12;59.49;101045.66;5048954;28;20403;-78
2022/12/24 11:14:59;;;;;;;92.72;62.80;;;;;;;10.20;59.52;101036.91;5048768;28;20380;-77
2022/12/24 11:17:25;;;;;;;110.15;70.07;;;;;;;10.26;59.46;101046.03;5046331;28;20389;-77
2022/12/24 11:19:50;;;;;;;117.93;74.07;;;;;;;10.25;59.59;101039.06;5048571;28;20385;-78
2022/12/24 11:22:21;;;;;;;129.98;78.03;;;;;;;10.32;59.68;101040.13;5047111;28;20384;-78
2022/12/24 11:25:07;;;;;;;137.40;79.20;;;;;;;10.42;59.50;101043.44;5050266;28;20384;-78
2022/12/24 11:27:44;;;;;;;135.02;75.68;;;;;;;10.46;59.50;101044.81;5065377;28;20477;-79